Latest Weather Observations for Wagga Wagga

IDN60801

Issued at 11:12 pm EDT Wednesday 1 February 2023 (issued every 10 minutes, with the page automatically refreshed every 10 minutes)

About weather observations | Map of weather stations | Latest weather observations for NSW | Other Formats
Station Details ID: 072150 Name: WAGGA WAGGA AMO Lat: -35.16 Lon: 147.46 Height: 212.0 m
Data from the previous 72 hours. | See also: Recent months at Wagga Wagga
Date/Time
EDT
Temp
°C
App
Temp
°C
Dew
Point
°C
Rel
Hum
%
Delta-T
°C
Wind Press
QNH
hPa
Press
MSL
hPa
Rain since
9am
mm
Dir  Spd
km/h
Gust
km/h
Spd
kts
Gust
kts
01/11:00pm 19.1 19.0 9.6 54 5.1 CALM 0 0 0 0 1002.6 1001.6 0.0
01/10:30pm 19.0 17.4 8.1 49 5.7 SSW 6 7 3 4 1002.6 1001.6 0.0
01/10:00pm 19.5 18.0 9.1 51 5.6 SSW 7 7 4 4 1002.5 1001.5 0.0
01/09:30pm 20.4 18.4 8.7 47 6.2 SW 9 9 5 5 1002.3 1001.3 0.0
01/09:00pm 21.7 19.7 8.6 43 7.0 W 9 9 5 5 1002.1 1001.0 0.0
01/08:30pm 23.5 21.0 8.0 37 8.3 W 11 13 6 7 1001.9 1000.8 0.0
01/08:00pm 25.6 22.0 6.8 30 10.0 W 15 20 8 11 1001.7 1000.6 0.0
01/07:30pm 27.0 22.3 5.3 25 11.3 W 19 28 10 15 1001.5 1000.4 0.0
01/07:00pm 27.8 22.2 5.4 24 11.8 W 24 30 13 16 1001.2 1000.1 0.0
01/06:30pm 28.3 22.7 5.2 23 12.1 W 24 32 13 17 1001.2 1000.1 0.0
01/06:00pm 28.6 22.6 3.5 20 12.8 W 24 33 13 18 1001.2 1000.1 0.0
01/05:30pm 28.9 23.5 6.3 24 12.1 WNW 24 33 13 18 1001.3 1000.2 0.0
01/05:00pm 29.6 24.3 6.9 24 12.3 WSW 24 35 13 19 1001.4 1000.3 0.0
01/04:30pm 29.3 24.9 4.7 21 12.8 WSW 17 30 9 16 1001.7 1000.6 0.0
01/04:00pm 29.7 24.4 5.1 21 13.0 WSW 22 32 12 17 1002.0 1000.9 0.0
01/03:30pm 29.4 24.6 4.8 21 12.8 WSW 19 32 10 17 1002.2 1001.1 0.0
01/03:00pm 29.2 23.7 4.0 20 13.0 SW 22 33 12 18 1002.3 1001.3 0.0
01/02:30pm 29.1 24.4 5.9 23 12.3 WSW 20 33 11 18 1002.5 1001.5 0.0
01/02:00pm 28.7 24.3 7.3 26 11.6 WSW 20 33 11 18 1002.7 1001.7 0.0
01/01:30pm 28.4 23.8 6.5 25 11.7 WSW 20 30 11 16 1003.2 1002.2 0.0
01/01:00pm 28.2 23.9 8.0 28 11.1 WSW 20 32 11 17 1003.3 1002.3 0.0
01/12:30pm 27.1 24.8 10.3 35 9.5 W 13 26 7 14 1003.7 1002.7 0.0
01/12:00pm 26.2 24.5 12.3 42 8.1 W 13 22 7 12 1004.1 1003.1 0.0
01/11:30am 25.2 21.9 11.0 41 8.0 W 19 30 10 16 1004.5 1003.4 0.0
01/11:00am 24.1 22.1 11.4 45 7.2 WSW 13 20 7 11 1004.7 1003.6 0.0
01/10:30am 23.3 21.5 10.7 45 7.0 NNW 11 17 6 9 1004.8 1003.7 0.0
01/10:00am 22.5 21.4 13.0 55 5.5 NW 11 17 6 9 1004.8 1003.7 0.0
01/09:30am 20.6 20.0 14.5 68 3.6 NNW 11 13 6 7 1004.8 1003.7 0.0
01/09:00am 19.4 18.5 12.7 65 3.8 NW 9 13 5 7 1004.8 1003.7 0.2
01/08:30am 18.5 19.2 13.4 72 2.9 S 2 7 1 4 1004.6 1003.5 0.2
01/08:00am 17.0 17.4 12.5 75 2.5 ENE 2 6 1 3 1004.4 1003.3 0.2
01/07:30am 15.6 15.0 12.2 80 1.9 ENE 7 9 4 5 1004.0 1003.0 0.2
01/07:00am 14.3 13.6 11.3 82 1.6 ENE 6 7 3 4 1003.9 1002.9 0.2
01/06:30am 12.9 13.1 10.4 85 1.3 CALM 0 0 0 0 1003.7 1002.7 0.2
01/06:00am 13.2 13.4 10.4 83 1.5 CALM 0 0 0 0 1003.5 1002.5 0.2
01/05:30am 12.3 12.3 9.9 85 1.2 CALM 0 0 0 0 1003.3 1002.2 0.2
01/05:00am 14.4 14.8 11.2 81 1.7 CALM 0 0 0 0 1003.1 1002.0 0.2
01/04:30am 14.3 14.5 10.7 79 1.9 CALM 0 0 0 0 1002.9 1001.8 0.2
01/04:00am 14.5 14.8 10.9 79 1.9 CALM 0 0 0 0 1002.7 1001.6 0.2
01/03:30am 15.2 15.3 11.6 79 2.0 NNE 2 7 1 4 1002.7 1001.6 0.2
01/03:00am 16.4 15.4 10.9 70 3.0 NE 7 9 4 5 1002.8 1001.7 0.2
01/02:30am 16.4 15.0 10.9 70 3.0 E 9 11 5 6 1002.9 1001.8 0.2
01/02:00am 17.4 17.8 11.4 68 3.3 CALM 0 0 0 0 1003.0 1001.9 0.2
01/01:30am 17.0 16.2 11.1 68 3.2 N 6 9 3 5 1003.2 1002.1 0.2
01/01:00am 18.1 17.5 11.7 66 3.6 NE 6 7 3 4 1003.2 1002.1 0.2
01/12:30am 18.7 18.0 11.5 63 4.0 NE 6 6 3 3 1003.3 1002.2 0.2
01/12:00am 19.1 19.5 11.2 60 4.4 CALM 0 0 0 0 1003.4 1002.3 0.2
 
Date/Time
EDT
Temp
°C
App
Temp
°C
Dew
Point
°C
Rel
Hum
%
Delta-T
°C
Wind Press
QNH
hPa
Press
MSL
hPa
Rain since
9am
mm
Dir  Spd
km/h
Gust
km/h
Spd
kts
Gust
kts
31/11:30pm 19.4 19.8 11.4 60 4.4 CALM 0 0 0 0 1003.5 1002.5 0.2
31/11:00pm 20.1 20.7 11.8 59 4.7 CALM 0 6 0 3 1003.5 1002.5 0.2
31/10:30pm 19.8 19.1 11.3 58 4.7 SW 6 7 3 4 1003.6 1002.6 0.2
31/10:00pm 20.1 18.8 11.3 57 4.9 SSW 9 11 5 6 1003.5 1002.5 0.2
31/09:30pm 20.3 18.7 11.5 57 4.9 SSW 11 13 6 7 1003.3 1002.2 0.2
31/09:00pm 21.6 19.7 10.4 49 6.2 SSW 11 13 6 7 1003.1 1002.0 0.2
31/08:30pm 23.8 22.2 10.1 42 7.6 SW 9 11 5 6 1002.9 1001.8 0.2
31/08:00pm 26.2 24.2 10.0 36 9.1 SW 11 13 6 7 1002.7 1001.6 0.2
31/07:30pm 28.7 25.6 7.3 26 11.6 SW 13 15 7 8 1002.6 1001.5 0.2
31/07:00pm 29.6 25.7 6.9 24 12.3 WSW 17 20 9 11 1002.3 1001.2 0.2
31/06:30pm 30.2 26.5 8.0 25 12.3 WSW 17 28 9 15 1002.0 1000.9 0.2
31/06:00pm 30.3 27.1 9.8 28 11.7 WSW 17 26 9 14 1002.0 1000.9 0.2
31/05:30pm 31.0 28.7 11.9 31 11.3 SW 15 20 8 11 1002.2 1001.1 0.2
31/05:00pm 30.2 28.0 10.7 30 11.3 W 13 22 7 12 1002.3 1001.2 0.2
31/04:30pm 30.5 27.6 12.4 33 10.7 W 19 28 10 15 1002.7 1001.6 0.2
31/04:00pm 30.8 28.5 14.0 36 10.3 WSW 19 28 10 15 1003.1 1002.0 0.2
31/03:30pm 30.1 27.9 13.4 36 10.1 W 17 28 9 15 1003.5 1002.5 0.2
31/03:00pm 29.8 27.1 14.7 39 9.3 W 22 32 12 17 1004.0 1003.0 0.2
31/02:30pm 29.2 27.7 15.3 42 8.6 WSW 17 26 9 14 1004.4 1003.3 0.2
31/02:00pm 28.7 26.8 15.2 43 8.3 WSW 19 32 10 17 1004.7 1003.6 0.2
31/01:30pm 27.9 26.7 16.2 49 7.3 W 17 26 9 14 1005.0 1003.9 0.2
31/01:00pm 26.8 27.5 17.0 55 6.2 W 9 19 5 10 1005.3 1004.2 0.2
31/12:30pm 26.6 26.1 16.8 55 6.1 WNW 15 22 8 12 1005.6 1004.5 0.2
31/12:00pm 26.4 26.7 18.0 60 5.4 W 13 19 7 10 1005.9 1004.8 0.2
31/11:30am 25.3 25.9 17.7 62 4.8 W 11 19 6 10 1006.4 1005.3 0.2
31/11:00am 24.9 26.4 17.6 64 4.6 WNW 6 11 3 6 1006.6 1005.5 0.2
31/10:30am 23.9 25.3 17.4 67 4.1 N 6 11 3 6 1006.9 1005.8 0.0
31/10:00am 23.8 25.6 18.4 72 3.4 NE 6 11 3 6 1007.0 1005.9 0.0
31/09:30am 22.8 23.7 17.5 72 3.3 NE 9 13 5 7 1007.1 1006.0 0.0
31/09:00am 21.9 24.6 17.7 77 2.6 CALM 0 6 0 3 1007.2 1006.1 25.8
31/08:30am 20.5 22.2 18.4 88 1.3 SW 7 9 4 5 1007.5 1006.4 25.8
31/08:00am 19.8 22.3 18.1 90 1.1 SSW 2 7 1 4 1007.3 1006.2 25.8
31/07:30am 19.0 21.9 18.2 95 0.5 CALM 0 0 0 0 1007.2 1006.1 25.8
31/07:00am 18.4 21.0 17.6 95 0.5 CALM 0 0 0 0 1006.8 1005.7 25.8
31/06:30am 18.4 19.8 17.8 96 0.4 NE 7 9 4 5 1006.5 1005.4 25.8
31/06:00am 18.8 21.1 17.8 94 0.6 N 2 6 1 3 1006.5 1005.4 25.8
31/05:30am 18.8 21.6 18.0 95 0.5 CALM 0 0 0 0 1006.3 1005.2 25.8
31/05:00am 18.6 21.4 17.9 96 0.4 CALM 0 0 0 0 1006.1 1005.0 25.8
31/04:30am 18.2 20.8 17.4 95 0.5 CALM 0 0 0 0 1006.1 1005.0 25.8
31/04:00am 18.3 20.7 17.1 93 0.7 CALM 0 0 0 0 1006.2 1005.1 25.8
31/03:30am 19.2 22.2 18.4 95 0.5 CALM 0 0 0 0 1006.3 1005.2 25.8
31/03:00am 19.7 22.3 18.5 93 0.8 NNW 2 6 1 3 1006.6 1005.5 25.8
31/02:30am 20.1 22.9 18.9 93 0.8 NNW 2 7 1 4 1006.9 1005.8 25.8
31/02:00am 19.8 22.7 19.0 95 0.5 SW 2 6 1 3 1007.1 1006.0 25.8
31/01:30am 20.6 22.7 19.3 92 0.8 N 7 9 4 5 1007.2 1006.1 25.8
31/01:00am 21.1 23.7 19.2 89 1.2 N 4 7 2 4 1007.5 1006.4 25.8
31/12:30am 21.4 23.2 19.5 89 1.2 ENE 9 9 5 5 1007.7 1006.7 25.8
31/12:00am 21.5 23.7 19.6 89 1.2 ENE 7 9 4 5 1007.9 1006.9 25.8
 
Date/Time
EDT
Temp
°C
App
Temp
°C
Dew
Point
°C
Rel
Hum
%
Delta-T
°C
Wind Press
QNH
hPa
Press
MSL
hPa
Rain since
9am
mm
Dir  Spd
km/h
Gust
km/h
Spd
kts
Gust
kts
30/11:30pm 21.6 25.4 20.1 91 1.0 CALM 0 0 0 0 1007.9 1006.9 25.8
30/11:00pm 21.9 24.5 20.0 89 1.2 NNE 6 9 3 5 1008.1 1007.1 25.8
30/10:30pm 22.0 25.7 19.9 88 1.4 CALM 0 0 0 0 1008.3 1007.3 25.8
30/10:00pm 21.8 24.3 19.9 89 1.2 W 6 7 3 4 1008.2 1007.2 25.8
30/09:30pm 22.5 24.5 19.9 85 1.7 N 9 9 5 5 1008.0 1007.0 25.8
30/09:00pm 22.1 25.7 19.8 87 1.5 CALM 0 0 0 0 1007.9 1006.9 25.8
30/08:30pm 22.2 24.5 19.9 87 1.5 SW 7 9 4 5 1007.7 1006.7 25.8
30/08:00pm 23.0 25.4 20.1 84 1.9 WNW 7 9 4 5 1007.5 1006.4 25.8
30/07:30pm 23.4 25.2 19.5 79 2.5 N 9 11 5 6 1007.3 1006.2 25.8
30/07:00pm 24.4 26.3 19.0 72 3.5 N 7 11 4 6 1007.3 1006.2 25.8
30/06:30pm 24.7 26.7 19.1 71 3.6 NE 7 11 4 6 1007.1 1006.0 25.8
30/06:00pm 24.0 25.4 19.5 76 2.9 ESE 11 13 6 7 1007.2 1006.1 25.8
30/05:30pm 24.1 26.3 19.6 76 2.9 NE 7 11 4 6 1007.3 1006.2 25.8
30/05:00pm 24.1 25.7 20.0 78 2.7 ESE 11 17 6 9 1007.5 1006.4 25.8
30/04:30pm 22.8 24.3 19.0 79 2.4 NE 9 13 5 7 1007.9 1006.9 25.8
30/04:00pm 22.9 24.5 19.1 79 2.4 ENE 9 13 5 7 1008.1 1007.1 25.8
30/03:30pm 20.9 21.5 18.5 86 1.5 E 13 15 7 8 1008.5 1007.5 25.8
30/03:00pm 19.8 20.7 18.5 92 0.8 ENE 11 13 6 7 1008.6 1007.6 25.8
30/02:54pm 19.6 20.5 18.3 92 0.8 NE 11 15 6 8 1008.7 1007.7 25.8
30/02:30pm 19.7 20.5 19.0 96 0.4 E 13 20 7 11 1009.1 1008.1 25.2
30/02:00pm 18.8 19.9 18.1 96 0.4 SE 9 11 5 6 1009.4 1008.3 22.4
30/01:30pm 19.0 19.5 18.3 96 0.4 ESE 13 17 7 9 1009.6 1008.5 15.4
30/01:05pm 18.8 19.2 18.1 96 0.4 SE 13 17 7 9 1009.9 1008.8 10.0
30/01:03pm 18.9 19.3 18.2 96 0.4 SE 13 17 7 9 1010.0 1008.9 9.2
30/01:00pm 18.8 19.1 18.0 95 0.5 ESE 13 19 7 10 1010.2 1009.1 8.6
30/12:55pm 18.8 18.4 18.1 96 0.4 ESE 17 24 9 13 1010.2 1009.1 8.4
30/12:54pm 18.8 18.4 18.1 96 0.4 ESE 17 26 9 14 1010.2 1009.1 8.4
30/12:30pm 18.7 17.7 18.0 96 0.4 SE 20 26 11 14 1010.2 1009.1 7.0
30/12:20pm 19.0 17.6 18.0 94 0.6 SE 22 30 12 16 1010.1 1009.0 3.8
30/12:00pm 19.5 17.1 18.2 92 0.8 ESE 28 35 15 19 1010.2 1009.1 2.8
30/11:57am 19.7 17.3 18.2 91 0.9 ESE 28 35 15 19 1010.0 1008.9 2.8
30/11:30am 22.0 24.8 20.8 93 0.8 E 7 11 4 6 1010.3 1009.2 2.8
30/11:00am 21.4 24.2 20.4 94 0.7 N 6 7 3 4 1010.5 1009.4 2.8
30/10:30am 21.2 24.0 20.4 95 0.5 NNE 6 9 3 5 1010.6 1009.5 2.4
30/10:00am 20.8 22.9 20.1 96 0.5 NE 9 11 5 6 1010.8 1009.7 2.2
30/09:30am 20.7 22.7 20.0 96 0.5 NNE 9 11 5 6 1011.0 1009.9 1.4
30/09:06am 20.8 22.9 20.1 96 0.5 NE 9 9 5 5 1011.1 1010.0 0.2
30/09:05am 20.9 23.0 20.2 96 0.5 NE 9 9 5 5 1011.1 1010.0 0.2
30/09:03am 20.9 23.4 20.2 96 0.5 NE 7 9 4 5 1011.1 1010.0 0.2
30/09:00am 20.8 23.2 20.1 96 0.5 NE 7 9 4 5 1011.1 1010.0 27.2
30/08:43am 20.7 23.1 20.0 96 0.5 ENE 7 9 4 5 1011.2 1010.1 26.8
30/08:30am 20.7 23.1 20.0 96 0.5 ENE 7 9 4 5 1011.1 1010.0 26.4
30/08:03am 20.6 23.9 19.9 96 0.5 NE 2 7 1 4 1011.0 1009.9 26.4
30/08:00am 20.5 23.4 19.8 96 0.5 NE 4 7 2 4 1010.9 1009.8 26.4
30/07:30am 20.5 22.8 19.8 96 0.4 NNW 7 9 4 5 1010.9 1009.8 26.0
30/07:00am 20.6 24.2 19.8 95 0.5 CALM 0 0 0 0 1010.8 1009.7 25.4
30/06:55am 20.5 24.1 19.7 95 0.5 CALM 0 0 0 0 1010.7 1009.6 25.2
30/06:32am 20.8 24.0 19.8 94 0.6 SSW 2 6 1 3 1010.5 1009.4 24.4
30/06:30am 20.8 23.7 19.8 94 0.6 S 4 9 2 5 1010.5 1009.4 24.2
30/06:00am 20.7 22.2 19.7 94 0.6 SSW 11 13 6 7 1010.0 1008.9 24.0
30/05:30am 20.8 24.4 19.8 94 0.6 CALM 0 0 0 0 1009.5 1008.4 24.0
30/05:00am 20.8 24.3 19.6 93 0.8 CALM 0 0 0 0 1009.3 1008.2 24.0
30/04:30am 20.9 24.3 19.4 91 1.0 CALM 0 0 0 0 1009.4 1008.3 24.0
30/04:00am 20.9 22.6 19.4 91 1.0 NE 9 11 5 6 1009.3 1008.2 24.0
30/03:30am 20.8 23.0 19.6 93 0.8 NNE 7 9 4 5 1009.8 1008.7 24.0
30/03:00am 20.7 22.6 19.7 94 0.6 NE 9 11 5 6 1010.1 1009.0 24.0
30/02:30am 20.7 22.2 19.7 94 0.6 ENE 11 13 6 7 1010.6 1009.5 24.0
30/02:00am 20.7 22.6 19.7 94 0.6 ESE 9 9 5 5 1010.7 1009.6 24.0
30/01:30am 20.7 23.1 19.7 94 0.6 ESE 6 7 3 4 1011.3 1010.2 24.0
30/01:00am 20.7 22.6 19.7 94 0.6 E 9 11 5 6 1011.6 1010.5 24.0
30/12:30am 20.8 22.6 19.6 93 0.8 ENE 9 11 5 6 1011.7 1010.6 24.0
30/12:00am 20.7 23.1 20.0 96 0.5 ESE 7 15 4 8 1011.9 1010.9 24.0
 
Date/Time
EDT
Temp
°C
App
Temp
°C
Dew
Point
°C
Rel
Hum
%
Delta-T
°C
Wind Press
QNH
hPa
Press
MSL
hPa
Rain since
9am
mm
Dir  Spd
km/h
Gust
km/h
Spd
kts
Gust
kts
29/11:30pm 20.8 23.1 19.8 94 0.6 SE 7 7 4 4 1012.7 1011.7 23.2

Other formats

Comma delimited format used in spreadsheet applications
http://www.bom.gov.au/fwo/IDN60801/IDN60801.94910.axf

JavaScript Object Notation format (JSON) in row-major order
http://www.bom.gov.au/fwo/IDN60801/IDN60801.94910.json

Data quality

Most of these data are generated automatically and are frequently updated. Quality checks on data are not normally performed. It is possible for incorrect values to appear. Refer to information at About Latest Weather Observations and please check the disclaimer before using these data.